Time;durP1;ratioP1;P1;durP2;ratioP2;P2;SDS_P1;SDS_P2;PMS_P1;PMS_P2;Temp;Humidity;BMP_temperature;BMP_pressure;BME280_temperature;BME280_humidity;BME280_pressure;Samples;Min_cycle;Max_cycle;Signal;HPM_P1;HPM_P2
2021/11/02 00:01:35;;;;;;;12.07;7.22;;;9.20;99.90;;;;;;5118800;27;20450;-75
2021/11/02 00:04:02;;;;;;;14.52;7.57;;;9.20;99.90;;;;;;5117466;27;20910;-72
2021/11/02 00:06:29;;;;;;;15.88;8.70;;;9.10;99.90;;;;;;5117557;27;20050;-72
2021/11/02 00:08:56;;;;;;;20.60;8.57;;;9.10;99.90;;;;;;5117337;27;20074;-73
2021/11/02 00:11:23;;;;;;;17.60;9.27;;;9.00;99.90;;;;;;5116982;27;20051;-72
2021/11/02 00:13:55;;;;;;;15.85;8.20;;;9.00;99.90;;;;;;5116806;27;20112;-72
2021/11/02 00:16:24;;;;;;;16.63;8.70;;;9.00;99.90;;;;;;5117557;27;20055;-71
2021/11/02 00:18:59;;;;;;;18.23;8.77;;;9.00;99.90;;;;;;5116815;27;20059;-71
2021/11/02 00:21:28;;;;;;;20.67;9.30;;;9.00;99.90;;;;;;5118313;27;20059;-71
2021/11/02 00:24:08;;;;;;;16.10;8.10;;;8.90;99.90;;;;;;5115813;27;20055;-73
2021/11/02 00:26:35;;;;;;;17.38;9.15;;;8.90;99.90;;;;;;5115514;27;20423;-72
2021/11/02 00:29:02;;;;;;;17.83;8.68;;;8.80;99.90;;;;;;5116383;27;20128;-71
2021/11/02 00:31:30;;;;;;;18.75;9.32;;;8.80;99.90;;;;;;5115980;27;20051;-71
2021/11/02 00:33:58;;;;;;;21.67;9.73;;;8.80;99.90;;;;;;5116483;27;20399;-71
2021/11/02 00:36:25;;;;;;;17.60;8.70;;;8.70;99.90;;;;;;5116466;27;20050;-71
2021/11/02 00:38:52;;;;;;;17.85;10.15;;;8.70;99.90;;;;;;5116581;27;20059;-72
2021/11/02 00:41:19;;;;;;;19.98;9.70;;;8.70;99.90;;;;;;5116499;27;20103;-71
2021/11/02 00:43:48;;;;;;;18.45;9.40;;;8.60;99.90;;;;;;5114339;27;20047;-72
2021/11/02 00:46:15;;;;;;;19.35;10.32;;;8.60;99.90;;;;;;5114755;27;20090;-71
2021/11/02 00:48:43;;;;;;;16.42;9.00;;;8.60;99.90;;;;;;5115149;27;20469;-71
2021/11/02 00:51:10;;;;;;;16.83;9.23;;;8.60;99.90;;;;;;5115372;27;20570;-71
2021/11/02 00:53:37;;;;;;;20.02;9.63;;;8.60;99.90;;;;;;5115184;27;20096;-71
2021/11/02 00:56:05;;;;;;;17.70;9.63;;;8.60;99.90;;;;;;5113429;27;21080;-71
2021/11/02 00:58:32;;;;;;;20.35;9.25;;;8.50;99.90;;;;;;5113456;27;20046;-71
2021/11/02 01:00:59;;;;;;;18.77;9.45;;;8.50;99.90;;;;;;5114335;27;20050;-71
2021/11/02 01:03:26;;;;;;;18.92;9.27;;;8.50;99.90;;;;;;5114200;27;20047;-71
2021/11/02 01:05:54;;;;;;;19.33;9.95;;;8.50;99.90;;;;;;5113624;27;20407;-72
2021/11/02 01:08:21;;;;;;;17.17;10.02;;;8.50;99.90;;;;;;5114617;27;20047;-71
2021/11/02 01:10:49;;;;;;;17.17;9.52;;;8.40;99.90;;;;;;5113477;27;20131;-71
2021/11/02 01:13:17;;;;;;;23.10;10.10;;;8.40;99.90;;;;;;5114154;27;20051;-73
2021/11/02 01:15:44;;;;;;;27.77;11.32;;;8.40;99.90;;;;;;5113020;27;20051;-71
2021/11/02 01:18:11;;;;;;;25.75;12.25;;;8.40;99.90;;;;;;5114203;27;20051;-72
2021/11/02 01:20:40;;;;;;;22.85;11.05;;;8.30;99.90;;;;;;5114289;27;20076;-71
2021/11/02 01:23:09;;;;;;;21.15;10.77;;;8.30;99.90;;;;;;5113768;27;20377;-72
2021/11/02 01:25:36;;;;;;;19.08;10.18;;;8.20;99.90;;;;;;5113626;27;20047;-71
2021/11/02 01:28:03;;;;;;;18.45;9.98;;;8.20;99.90;;;;;;5114767;27;20461;-71
2021/11/02 01:30:30;;;;;;;24.45;10.45;;;8.20;99.90;;;;;;5114824;27;20054;-75
2021/11/02 01:32:58;;;;;;;23.10;11.00;;;8.20;99.90;;;;;;5114403;27;20055;-72
2021/11/02 01:35:25;;;;;;;23.52;11.10;;;8.20;99.90;;;;;;5113505;27;20047;-71
2021/11/02 01:37:52;;;;;;;21.52;10.75;;;8.20;99.90;;;;;;5114405;27;20149;-71
2021/11/02 01:40:22;;;;;;;21.83;9.93;;;8.20;99.90;;;;;;5114786;27;20517;-71
2021/11/02 01:42:50;;;;;;;22.65;11.57;;;8.10;99.90;;;;;;5115212;27;20499;-71
2021/11/02 01:45:17;;;;;;;22.35;11.15;;;8.10;99.90;;;;;;5115046;27;20058;-71
2021/11/02 01:47:48;;;;;;;24.35;11.95;;;8.00;99.90;;;;;;5116112;27;20155;-71
2021/11/02 01:50:17;;;;;;;22.30;11.40;;;8.00;99.90;;;;;;5115481;27;20102;-71
2021/11/02 01:52:44;;;;;;;24.77;11.60;;;8.00;99.90;;;;;;5114721;27;20054;-72
2021/11/02 01:55:16;;;;;;;25.67;12.10;;;8.00;99.90;;;;;;5115974;27;20454;-72
2021/11/02 01:57:46;;;;;;;28.42;13.00;;;7.90;99.90;;;;;;5115239;28;20047;-71
2021/11/02 02:00:16;;;;;;;27.92;13.68;;;7.90;99.90;;;;;;5115834;28;20512;-71
2021/11/02 02:02:52;;;;;;;27.48;12.43;;;7.90;99.90;;;;;;5115493;27;20051;-72
2021/11/02 02:05:33;;;;;;;26.27;12.32;;;7.80;99.90;;;;;;5114990;28;20449;-71
2021/11/02 02:08:10;;;;;;;29.83;13.32;;;7.90;99.90;;;;;;5115433;28;20551;-72
2021/11/02 02:10:45;;;;;;;33.88;13.95;;;7.80;99.90;;;;;;5115613;28;20643;-71
2021/11/02 02:13:19;;;;;;;31.05;13.93;;;7.80;99.90;;;;;;5114954;28;20047;-71
2021/11/02 02:15:56;;;;;;;34.80;14.38;;;7.70;99.90;;;;;;5115029;28;20440;-71
2021/11/02 02:18:26;;;;;;;;;;;7.60;99.90;;;;;;5115610;28;20144;-71
2021/11/02 02:21:12;;;;;;;34.08;13.95;;;7.60;99.90;;;;;;5115177;28;19979;-71
2021/11/02 02:24:10;;;;;;;35.55;14.70;;;7.50;99.90;;;;;;5114951;27;20047;-71
2021/11/02 02:26:42;;;;;;;;;;;7.50;99.90;;;;;;5088105;28;20055;-71
2021/11/02 02:29:12;;;;;;;39.75;14.45;;;7.50;99.90;;;;;;5115800;28;20345;-74
2021/11/02 02:31:43;;;;;;;35.10;14.15;;;7.40;99.90;;;;;;5114361;28;20051;-71
2021/11/02 02:34:12;;;;;;;36.92;14.90;;;7.40;99.90;;;;;;5115569;28;20046;-72
2021/11/02 02:36:41;;;;;;;45.78;15.93;;;7.40;99.90;;;;;;5115145;28;20044;-72
2021/11/02 02:39:10;;;;;;;37.42;16.42;;;7.40;99.90;;;;;;5115976;27;20046;-71
2021/11/02 02:41:41;;;;;;;31.30;14.95;;;7.50;99.90;;;;;;5115518;27;20055;-71
2021/11/02 02:44:10;;;;;;;31.13;14.25;;;7.50;99.90;;;;;;5115451;27;20047;-71
2021/11/02 02:46:39;;;;;;;32.75;14.32;;;7.60;99.90;;;;;;5115940;27;20450;-71
2021/11/02 02:49:09;;;;;;;36.78;14.95;;;7.60;99.90;;;;;;5115841;27;20507;-71
2021/11/02 02:51:36;;;;;;;32.33;14.23;;;7.70;99.90;;;;;;5115119;27;20507;-72
2021/11/02 02:54:03;;;;;;;29.35;14.02;;;7.70;99.90;;;;;;5119041;27;20662;-71
2021/11/02 02:56:33;;;;;;;29.52;13.80;;;7.80;99.90;;;;;;5118553;27;20051;-71
2021/11/02 02:59:02;;;;;;;30.63;15.45;;;7.80;99.90;;;;;;5119953;27;20460;-71
2021/11/02 03:01:30;;;;;;;30.13;14.68;;;7.90;99.90;;;;;;5119311;27;20589;-72
2021/11/02 03:04:04;;;;;;;30.48;14.30;;;7.90;99.90;;;;;;5120816;27;20051;-72
2021/11/02 03:06:38;;;;;;;33.05;14.40;;;7.90;99.90;;;;;;5119461;27;20043;-71
2021/11/02 03:09:08;;;;;;;38.20;15.40;;;7.90;99.90;;;;;;5118911;27;20047;-72
2021/11/02 03:11:37;;;;;;;33.10;15.20;;;8.00;99.90;;;;;;5120577;27;20323;-71
2021/11/02 03:14:08;;;;;;;44.50;15.68;;;8.10;99.90;;;;;;5119836;27;21246;-72
2021/11/02 03:16:45;;;;;;;34.88;15.23;;;8.00;99.90;;;;;;5119773;27;20590;-72
2021/11/02 03:19:45;;;;;;;;;;;8.00;99.90;;;;;;5119712;27;20055;-71
2021/11/02 03:45:02;;;;;;;44.10;16.95;;;7.90;99.90;;;;;;5114268;27;20107;-72
2021/11/02 03:50:27;;;;;;;44.08;18.00;;;7.90;99.90;;;;;;5085926;27;20047;-71
2021/11/02 03:55:45;;;;;;;42.35;18.00;;;7.90;99.90;;;;;;5072792;27;20079;-74
2021/11/02 03:58:17;;;;;;;47.00;17.75;;;7.80;99.90;;;;;;5119486;27;21032;-71
2021/11/02 05:11:06;;;;;;;39.20;15.88;;;7.80;99.90;;;;;;5033555;28;20518;-70
2021/11/02 05:14:07;;;;;;;30.92;14.80;;;7.70;99.90;;;;;;5033752;28;21374;-71
2021/11/02 05:47:12;;;;;;;33.88;14.38;;;7.50;99.90;;;;;;5118951;27;20068;-71
2021/11/02 05:49:55;;;;;;;28.67;14.57;;;7.40;99.90;;;;;;5119450;27;20559;-71
2021/11/02 05:55:37;;;;;;;27.80;13.35;;;7.40;99.90;;;;;;5121239;27;20054;-72
2021/11/02 05:58:09;;;;;;;32.75;13.90;;;7.40;99.90;;;;;;5123506;27;20051;-72
2021/11/02 06:00:47;;;;;;;31.65;13.48;;;7.40;99.90;;;;;;5122202;28;20054;-72
2021/11/02 06:06:03;;;;;;;26.85;13.15;;;7.30;99.90;;;;;;5117561;28;20054;-73
2021/11/02 06:28:13;;;;;;;28.88;13.50;;;7.60;99.90;;;;;;5122486;27;20062;-73
2021/11/02 06:30:47;;;;;;;30.33;13.40;;;7.60;99.90;;;;;;5122394;27;20247;-73
2021/11/02 06:33:28;;;;;;;29.60;14.32;;;7.60;99.90;;;;;;5121650;27;20058;-73
2021/11/02 06:44:27;;;;;;;27.55;12.60;;;7.70;99.90;;;;;;5124043;27;20054;-73
2021/11/02 06:56:15;;;;;;;25.65;12.93;;;7.80;99.90;;;;;;5124659;27;20111;-72
2021/11/02 07:16:38;;;;;;;21.33;11.57;;;7.80;99.90;;;;;;5123688;27;20066;-73
2021/11/02 07:19:08;;;;;;;20.17;11.32;;;7.90;99.90;;;;;;5122853;27;20111;-71
2021/11/02 07:21:43;;;;;;;22.88;11.40;;;7.90;99.90;;;;;;5123815;27;20054;-72
2021/11/02 07:24:16;;;;;;;23.10;12.25;;;7.90;99.90;;;;;;5123564;27;20055;-71
2021/11/02 07:26:52;;;;;;;24.65;12.20;;;8.00;99.90;;;;;;5122782;27;20085;-72
2021/11/02 08:45:13;;;;;;;10.73;6.40;;;10.70;99.90;;;;;;5119085;27;20138;-73
2021/11/02 08:47:43;;;;;;;10.90;6.07;;;9.90;99.90;;;;;;5120962;27;20081;-72
2021/11/02 08:50:11;;;;;;;8.43;4.95;;;11.00;99.90;;;;;;5121603;27;20069;-72
2021/11/02 08:52:50;;;;;;;7.53;4.50;;;14.20;99.90;;;;;;5119016;27;20097;-72
2021/11/02 08:55:17;;;;;;;9.90;5.30;;;14.70;99.90;;;;;;5118072;27;20080;-72
2021/11/02 08:57:46;;;;;;;7.53;4.32;;;14.90;99.90;;;;;;5117733;27;20511;-72
2021/11/02 09:00:14;;;;;;;7.90;4.60;;;15.10;99.90;;;;;;5119582;27;20051;-70
2021/11/02 09:02:45;;;;;;;8.27;4.20;;;17.10;99.90;;;;;;5117989;27;20047;-70
2021/11/02 09:05:15;;;;;;;9.20;4.18;;;16.40;99.90;;;;;;5118175;27;20100;-70
2021/11/02 09:07:46;;;;;;;8.10;4.45;;;17.30;99.90;;;;;;5118497;27;20143;-70
2021/11/02 09:10:15;;;;;;;8.32;4.20;;;16.90;99.90;;;;;;5117758;27;20138;-70
2021/11/02 09:12:44;;;;;;;8.00;4.25;;;18.00;99.90;;;;;;5118015;27;20138;-71
2021/11/02 09:15:13;;;;;;;8.52;3.97;;;15.50;99.90;;;;;;5117155;27;20519;-70
2021/11/02 09:17:44;;;;;;;8.02;3.50;;;16.20;99.90;;;;;;5117631;27;20062;-70
2021/11/02 09:20:13;;;;;;;7.53;3.22;;;17.40;99.90;;;;;;5118381;27;20047;-70
2021/11/02 09:22:41;;;;;;;6.30;3.47;;;17.70;99.90;;;;;;5117910;27;20572;-70
2021/11/02 09:25:11;;;;;;;6.22;3.10;;;15.70;99.90;;;;;;5116369;27;20108;-69
2021/11/02 09:27:41;;;;;;;8.35;3.42;;;16.40;99.90;;;;;;5117754;27;20043;-70
2021/11/02 09:30:11;;;;;;;7.28;3.20;;;16.60;99.90;;;;;;5117907;27;20453;-70
2021/11/02 09:32:41;;;;;;;5.50;2.75;;;18.20;99.90;;;;;;5117634;27;20477;-70
2021/11/02 09:35:08;;;;;;;5.22;2.80;;;18.40;99.90;;;;;;5117160;27;20111;-70
2021/11/02 09:37:38;;;;;;;5.82;2.60;;;19.10;99.90;;;;;;5117996;27;20047;-70
2021/11/02 09:40:16;;;;;;;5.93;2.72;;;19.30;99.90;;;;;;5117993;27;20043;-70
2021/11/02 09:43:45;;;;;;;7.97;2.70;;;18.50;99.90;;;;;;5117685;27;20051;-70
2021/11/02 09:46:45;;;;;;;5.28;2.53;;;17.30;99.90;;;;;;5053231;28;20048;-70
2021/11/02 09:50:12;;;;;;;5.30;2.25;;;17.80;99.90;;;;;;5054093;28;20095;-70
2021/11/02 09:53:15;;;;;;;4.80;2.22;;;14.20;99.90;;;;;;5117424;27;20490;-69
2021/11/02 09:55:59;;;;;;;5.30;2.50;;;14.30;99.90;;;;;;5117117;27;20059;-69
2021/11/02 09:59:06;;;;;;;5.53;1.77;;;15.30;99.90;;;;;;5117202;27;20163;-70
2021/11/02 10:01:37;;;;;;;6.90;2.70;;;14.80;99.90;;;;;;5117161;28;20078;-69
2021/11/02 10:04:43;;;;;;;5.40;2.17;;;13.50;99.90;;;;;;5117364;27;20100;-70
2021/11/02 10:07:48;;;;;;;5.28;2.20;;;15.50;99.90;;;;;;5117005;28;20051;-70
2021/11/02 10:10:17;;;;;;;6.85;2.03;;;18.00;99.90;;;;;;5117417;28;20059;-70
2021/11/02 10:13:03;;;;;;;5.70;2.35;;;17.90;99.90;;;;;;5117430;27;20047;-70
2021/11/02 10:15:42;;;;;;;5.00;1.77;;;18.40;99.90;;;;;;5116581;27;20108;-70
2021/11/02 10:18:40;;;;;;;4.85;2.00;;;18.80;99.90;;;;;;5116449;28;20142;-70
2021/11/02 10:21:38;;;;;;;3.10;1.50;;;15.60;99.90;;;;;;5116100;28;20046;-69
2021/11/02 10:24:34;;;;;;;;;;;13.20;99.90;;;;;;5117091;27;20083;-69
2021/11/02 10:27:16;;;;;;;3.88;1.50;;;14.80;99.90;;;;;;5116987;28;19927;-70
2021/11/02 10:30:19;;;;;;;5.80;1.77;;;12.60;99.90;;;;;;5117692;28;20320;-69
2021/11/02 10:32:48;;;;;;;7.15;1.95;;;12.30;99.90;;;;;;5117470;27;20051;-71
2021/11/02 10:35:21;;;;;;;3.67;1.52;;;11.90;99.90;;;;;;5117203;28;20130;-71
2021/11/02 10:38:01;;;;;;;10.45;1.80;;;11.60;99.90;;;;;;5117994;28;20061;-71
2021/11/02 10:40:36;;;;;;;4.97;1.70;;;11.60;99.90;;;;;;5118109;27;20059;-71
2021/11/02 10:43:31;;;;;;;7.37;1.80;;;15.00;99.90;;;;;;5115907;28;20126;-72
2021/11/02 10:46:04;;;;;;;5.15;1.58;;;16.40;99.90;;;;;;5116257;28;20769;-70
2021/11/02 10:48:35;;;;;;;4.13;1.50;;;18.60;99.90;;;;;;5117714;28;20071;-70
2021/11/02 10:51:07;;;;;;;5.50;1.77;;;19.00;99.90;;;;;;5117081;28;20576;-70
2021/11/02 10:53:38;;;;;;;4.32;1.80;;;17.60;99.90;;;;;;5116525;27;20449;-70
2021/11/02 10:56:12;;;;;;;5.63;1.83;;;15.90;99.90;;;;;;5117633;28;20043;-70
2021/11/02 10:58:44;;;;;;;6.70;1.83;;;14.80;99.90;;;;;;5116340;28;20505;-70
2021/11/02 11:01:13;;;;;;;5.20;1.65;;;13.00;99.90;;;;;;5117295;28;20142;-70
2021/11/02 11:03:42;;;;;;;2.53;1.05;;;11.70;99.90;;;;;;5117009;28;20051;-72
2021/11/02 11:06:13;;;;;;;4.45;1.50;;;11.80;99.90;;;;;;5114940;28;20526;-69
2021/11/02 11:08:42;;;;;;;5.05;1.50;;;11.60;99.90;;;;;;5119520;27;20166;-69
2021/11/02 11:11:10;;;;;;;5.70;1.48;;;11.40;99.90;;;;;;5120607;27;20051;-72
2021/11/02 11:13:39;;;;;;;5.47;1.17;;;11.20;99.90;;;;;;5120162;27;20051;-71
2021/11/02 11:16:10;;;;;;;5.47;1.40;;;11.30;99.90;;;;;;5120249;27;20453;-72
2021/11/02 11:18:53;;;;;;;4.55;1.40;;;10.90;99.90;;;;;;5120969;27;20090;-71
2021/11/02 11:21:22;;;;;;;5.22;1.60;;;10.40;99.90;;;;;;5121123;27;20055;-72
2021/11/02 11:23:56;;;;;;;3.83;1.63;;;10.50;99.90;;;;;;5121350;27;20052;-71
2021/11/02 11:26:26;;;;;;;5.15;1.40;;;11.20;99.90;;;;;;5121019;27;20387;-72
2021/11/02 11:28:56;;;;;;;6.65;1.58;;;11.20;99.90;;;;;;5121041;27;20150;-72
2021/11/02 11:31:25;;;;;;;5.90;2.10;;;11.50;99.90;;;;;;5120683;27;20198;-72
2021/11/02 11:34:00;;;;;;;6.25;1.42;;;11.30;99.90;;;;;;5119555;27;20051;-73
2021/11/02 11:36:29;;;;;;;6.68;1.50;;;11.00;99.90;;;;;;5120169;27;20050;-71
2021/11/02 11:39:00;;;;;;;6.07;1.45;;;11.20;99.90;;;;;;5120192;27;20411;-71
2021/11/02 11:41:28;;;;;;;7.70;1.50;;;11.00;99.90;;;;;;5119355;27;20108;-69
2021/11/02 11:43:57;;;;;;;4.47;1.60;;;11.10;99.90;;;;;;5120106;27;20104;-70
2021/11/02 11:46:28;;;;;;;5.70;1.52;;;11.00;99.90;;;;;;5120012;27;20499;-70
2021/11/02 11:48:59;;;;;;;8.65;2.10;;;11.10;99.90;;;;;;5120905;27;20457;-70
2021/11/02 11:51:29;;;;;;;5.10;1.38;;;10.90;99.90;;;;;;5118867;27;20082;-70
2021/11/02 11:54:01;;;;;;;6.03;1.40;;;11.00;99.90;;;;;;5118710;27;20055;-70
2021/11/02 11:56:36;;;;;;;5.35;1.30;;;11.00;99.90;;;;;;5118268;27;20131;-70
2021/11/02 11:59:05;;;;;;;5.63;1.33;;;10.80;99.90;;;;;;5118921;27;20085;-70
2021/11/02 12:01:38;;;;;;;8.60;2.85;;;11.10;99.90;;;;;;5118757;27;20047;-70
2021/11/02 12:04:14;;;;;;;5.90;2.33;;;11.40;99.90;;;;;;5117507;27;20127;-70
2021/11/02 12:06:47;;;;;;;5.40;2.05;;;11.70;99.90;;;;;;5118405;27;20074;-70
2021/11/02 12:09:18;;;;;;;6.57;1.20;;;12.10;99.90;;;;;;5118119;27;20043;-70
2021/11/02 12:11:46;;;;;;;4.80;1.77;;;13.70;99.90;;;;;;5118521;27;20059;-70
2021/11/02 12:14:20;;;;;;;5.22;1.67;;;13.20;99.90;;;;;;5119536;27;20043;-71
2021/11/02 12:16:48;;;;;;;5.40;1.50;;;12.50;99.90;;;;;;5118418;27;20104;-70
2021/11/02 12:19:41;;;;;;;5.78;1.50;;;12.60;99.90;;;;;;5119098;27;20063;-70
2021/11/02 12:22:14;;;;;;;3.80;1.40;;;12.60;99.90;;;;;;5119254;27;20058;-70
2021/11/02 12:24:42;;;;;;;3.25;1.20;;;12.40;99.90;;;;;;5117864;27;20138;-70
2021/11/02 12:27:14;;;;;;;3.67;1.30;;;13.50;99.90;;;;;;5117790;27;20047;-70
2021/11/02 12:29:42;;;;;;;3.60;1.45;;;15.40;99.90;;;;;;5118818;27;20055;-71
2021/11/02 12:32:12;;;;;;;4.03;1.55;;;14.20;99.90;;;;;;5119342;27;20051;-71
2021/11/02 12:34:55;;;;;;;5.93;1.60;;;12.50;99.90;;;;;;5117998;27;20048;-70
2021/11/02 12:37:23;;;;;;;8.20;1.95;;;12.00;99.90;;;;;;5118365;27;20107;-70
2021/11/02 12:39:52;;;;;;;6.95;1.40;;;11.90;99.90;;;;;;5118330;27;20519;-70
2021/11/02 12:42:25;;;;;;;4.95;1.42;;;12.20;99.90;;;;;;5117739;27;20050;-70
2021/11/02 12:44:54;;;;;;;4.35;1.10;;;12.30;99.90;;;;;;5117295;27;20061;-70
2021/11/02 12:47:24;;;;;;;6.50;1.48;;;12.40;99.90;;;;;;5117702;27;20039;-70
2021/11/02 12:49:56;;;;;;;4.40;1.88;;;12.00;99.90;;;;;;5116299;27;20107;-70
2021/11/02 12:52:28;;;;;;;5.25;1.85;;;11.70;99.90;;;;;;5115527;27;20058;-70
2021/11/02 12:55:00;;;;;;;6.13;1.77;;;12.00;99.90;;;;;;5116927;27;20412;-70
2021/11/02 12:57:35;;;;;;;5.20;1.70;;;12.20;99.90;;;;;;5116192;27;20082;-70
2021/11/02 13:00:05;;;;;;;4.97;1.58;;;12.10;99.90;;;;;;5118558;27;20115;-70
2021/11/02 13:02:34;;;;;;;3.45;1.30;;;12.20;99.90;;;;;;5117620;27;20051;-70
2021/11/02 13:05:06;;;;;;;5.25;1.90;;;12.00;99.90;;;;;;5116861;27;20049;-70
2021/11/02 13:07:38;;;;;;;6.63;1.88;;;12.00;99.90;;;;;;5119493;27;20556;-70
2021/11/02 13:10:16;;;;;;;6.78;1.92;;;12.60;99.90;;;;;;5119492;27;20061;-70
2021/11/02 13:12:45;;;;;;;7.95;1.60;;;13.20;99.90;;;;;;5118429;27;20046;-70
2021/11/02 13:15:13;;;;;;;6.13;1.63;;;13.20;99.90;;;;;;5118927;27;20069;-70
2021/11/02 13:17:45;;;;;;;5.32;1.60;;;13.70;99.90;;;;;;5118889;27;20043;-70
2021/11/02 13:20:26;;;;;;;5.15;1.35;;;14.10;99.90;;;;;;5118689;27;20095;-70
2021/11/02 13:22:54;;;;;;;3.53;1.27;;;14.30;99.90;;;;;;5117811;27;20047;-70
2021/11/02 13:25:24;;;;;;;4.25;1.30;;;12.60;99.90;;;;;;5117237;27;20258;-70
2021/11/02 13:27:54;;;;;;;5.55;1.48;;;12.70;99.90;;;;;;5118812;27;20067;-70
2021/11/02 13:30:36;;;;;;;5.35;1.33;;;12.70;99.90;;;;;;5118001;27;20126;-70
2021/11/02 13:33:08;;;;;;;3.83;1.50;;;12.80;99.90;;;;;;5117526;27;20175;-70
2021/11/02 13:35:42;;;;;;;8.82;1.70;;;12.60;99.90;;;;;;5117673;27;20051;-71
2021/11/02 13:38:36;;;;;;;5.82;1.55;;;12.40;99.90;;;;;;5118142;27;20051;-70
2021/11/02 13:41:10;;;;;;;4.45;1.55;;;12.50;99.90;;;;;;5117996;27;20069;-70
2021/11/02 13:43:38;;;;;;;3.22;1.02;;;12.40;99.90;;;;;;5117918;27;20047;-70
2021/11/02 13:46:08;;;;;;;6.90;1.60;;;12.30;99.90;;;;;;5116518;27;20457;-70
2021/11/02 13:48:35;;;;;;;5.63;2.00;;;12.50;99.90;;;;;;5117774;27;20596;-70
2021/11/02 13:51:06;;;;;;;7.65;2.13;;;12.40;99.90;;;;;;5118907;27;20077;-70
2021/11/02 13:53:34;;;;;;;7.80;1.73;;;12.30;99.90;;;;;;5118045;27;20407;-70
2021/11/02 13:56:02;;;;;;;9.02;1.95;;;12.10;99.90;;;;;;5118283;27;20051;-70
2021/11/02 13:58:29;;;;;;;7.75;1.80;;;12.00;99.90;;;;;;5117698;27;20304;-70
2021/11/02 14:00:57;;;;;;;6.05;1.42;;;11.80;99.90;;;;;;5118977;27;20063;-70
2021/11/02 14:03:30;;;;;;;2.67;1.17;;;11.70;99.90;;;;;;5118517;27;20058;-71
2021/11/02 14:05:58;;;;;;;8.23;2.05;;;11.60;99.90;;;;;;5117975;28;20047;-70
2021/11/02 14:08:29;;;;;;;5.38;1.92;;;11.50;99.90;;;;;;5116410;28;20055;-70
2021/11/02 14:10:57;;;;;;;3.88;0.98;;;11.30;99.90;;;;;;5115580;28;20594;-70
2021/11/02 14:13:45;;;;;;;2.83;0.60;;;10.50;99.90;;;;;;5117398;27;20051;-70
2021/11/02 14:16:14;;;;;;;2.63;0.70;;;9.70;99.90;;;;;;5117739;28;20086;-69
2021/11/02 14:18:41;;;;;;;2.28;1.05;;;9.40;99.90;;;;;;5116475;28;20039;-69
2021/11/02 14:21:10;;;;;;;1.67;0.68;;;9.20;99.90;;;;;;5112450;28;20324;-69
2021/11/02 14:23:41;;;;;;;1.65;0.50;;;9.00;99.90;;;;;;5111165;28;20051;-70
2021/11/02 14:26:22;;;;;;;3.63;1.05;;;8.90;99.90;;;;;;5111676;28;20489;-70
2021/11/02 14:28:53;;;;;;;3.35;1.05;;;8.60;99.90;;;;;;5112834;28;20175;-70
2021/11/02 14:31:48;;;;;;;3.30;1.20;;;8.50;99.90;;;;;;5114880;28;20511;-71
2021/11/02 14:34:47;;;;;;;2.63;0.90;;;8.40;99.90;;;;;;5116371;27;20047;-71
2021/11/02 14:37:16;;;;;;;3.75;0.82;;;8.30;99.90;;;;;;5117012;28;20050;-73
2021/11/02 14:40:04;;;;;;;2.33;0.70;;;8.00;99.90;;;;;;5116686;28;20051;-73
2021/11/02 14:42:42;;;;;;;2.55;0.90;;;7.90;99.90;;;;;;5118029;27;20212;-74
2021/11/02 14:45:10;;;;;;;1.17;0.55;;;7.90;99.90;;;;;;5121093;27;20055;-73
2021/11/02 14:47:38;;;;;;;2.30;0.70;;;7.80;99.90;;;;;;5120107;27;20048;-73
2021/11/02 14:50:36;;;;;;;1.58;0.82;;;7.90;99.90;;;;;;5123045;27;20055;-73
2021/11/02 14:53:29;;;;;;;3.25;0.88;;;7.80;99.90;;;;;;5121073;27;20073;-74
2021/11/02 14:55:59;;;;;;;2.55;0.50;;;7.80;99.90;;;;;;5113293;27;20134;-74
2021/11/02 14:58:52;;;;;;;1.42;0.50;;;7.80;99.90;;;;;;5116827;27;20111;-74
2021/11/02 15:01:23;;;;;;;0.75;0.45;;;7.80;99.90;;;;;;5115603;27;20131;-74
2021/11/02 15:03:58;;;;;;;2.22;0.65;;;7.80;99.90;;;;;;5115408;27;20054;-73
2021/11/02 15:06:32;;;;;;;1.10;0.70;;;7.70;99.90;;;;;;5115830;27;20055;-73
2021/11/02 15:09:00;;;;;;;4.10;1.20;;;7.80;99.90;;;;;;5119491;27;20086;-74
2021/11/02 15:11:30;;;;;;;4.95;1.02;;;7.80;99.90;;;;;;5120743;27;20104;-76
2021/11/02 15:13:59;;;;;;;1.92;0.60;;;7.80;99.90;;;;;;5120088;27;20081;-74
2021/11/02 15:16:27;;;;;;;2.42;0.80;;;7.80;99.90;;;;;;5119264;27;20753;-74
2021/11/02 15:19:00;;;;;;;1.10;0.63;;;7.80;99.90;;;;;;5120302;27;20453;-74
2021/11/02 15:21:33;;;;;;;2.78;0.63;;;7.80;99.90;;;;;;5115166;27;20917;-77
2021/11/02 15:24:06;;;;;;;0.90;0.60;;;7.80;99.90;;;;;;5118950;27;20099;-75
2021/11/02 15:26:48;;;;;;;2.28;0.80;;;7.70;99.90;;;;;;5119101;27;20054;-75
2021/11/02 15:29:16;;;;;;;1.02;0.60;;;7.80;99.90;;;;;;5120932;27;20089;-74
2021/11/02 15:31:55;;;;;;;3.58;0.70;;;7.70;99.90;;;;;;5120808;27;20051;-75
2021/11/02 15:34:22;;;;;;;2.65;0.70;;;7.70;99.90;;;;;;5117036;27;20639;-76
2021/11/02 15:37:06;;;;;;;1.50;0.60;;;7.60;99.90;;;;;;5118263;27;20051;-75
2021/11/02 15:39:34;;;;;;;1.67;0.40;;;7.60;99.90;;;;;;5121274;27;20460;-74
2021/11/02 15:42:03;;;;;;;2.20;0.60;;;7.60;99.90;;;;;;5114610;27;20144;-75
2021/11/02 15:44:31;;;;;;;1.65;0.50;;;7.60;99.90;;;;;;5103461;27;20585;-76
2021/11/02 15:46:59;;;;;;;1.90;0.88;;;7.60;99.90;;;;;;5115549;27;20231;-74
2021/11/02 15:49:26;;;;;;;1.23;0.65;;;7.60;99.90;;;;;;5115566;27;20059;-75
2021/11/02 15:51:56;;;;;;;1.48;0.60;;;7.50;99.90;;;;;;5114922;27;20062;-75
2021/11/02 15:54:25;;;;;;;4.85;1.30;;;7.50;99.90;;;;;;5113827;27;20047;-74
2021/11/02 15:56:53;;;;;;;3.35;1.10;;;7.50;99.90;;;;;;5115971;27;20133;-74
2021/11/02 15:59:26;;;;;;;1.92;1.23;;;7.60;99.90;;;;;;5118790;27;20053;-74
2021/11/02 16:01:54;;;;;;;2.70;1.10;;;7.50;99.90;;;;;;5118680;27;20051;-74
2021/11/02 16:04:23;;;;;;;2.92;1.10;;;7.50;99.90;;;;;;5119468;27;20049;-74
2021/11/02 16:07:01;;;;;;;1.75;1.10;;;7.50;99.90;;;;;;5118497;27;20051;-74
2021/11/02 16:09:45;;;;;;;2.25;0.90;;;7.50;99.90;;;;;;5119026;27;20043;-73
2021/11/02 16:12:15;;;;;;;1.10;0.77;;;7.50;99.90;;;;;;5118867;27;20078;-75
2021/11/02 16:14:54;;;;;;;2.72;1.17;;;7.40;99.90;;;;;;5118967;27;20043;-73
2021/11/02 16:17:22;;;;;;;4.40;1.08;;;7.50;99.90;;;;;;5118503;27;20047;-74
2021/11/02 16:19:50;;;;;;;2.50;1.10;;;7.50;99.90;;;;;;5120256;27;20111;-75
2021/11/02 16:22:18;;;;;;;4.20;1.40;;;7.50;99.90;;;;;;5118515;27;20124;-75
2021/11/02 16:24:45;;;;;;;5.93;1.45;;;7.50;99.90;;;;;;5119428;27;20465;-74
2021/11/02 16:27:22;;;;;;;4.65;1.20;;;7.50;99.90;;;;;;5119092;27;20572;-74
2021/11/02 16:29:51;;;;;;;5.00;1.27;;;7.50;99.90;;;;;;5118649;27;20055;-74
2021/11/02 16:32:20;;;;;;;2.83;1.08;;;7.50;99.90;;;;;;5118347;27;20047;-73
2021/11/02 16:34:48;;;;;;;2.58;1.10;;;7.50;99.90;;;;;;5117865;27;20047;-73
2021/11/02 16:37:32;;;;;;;2.85;1.40;;;7.50;99.90;;;;;;5118354;27;20047;-73
2021/11/02 16:40:21;;;;;;;4.65;1.33;;;7.50;99.90;;;;;;5118043;27;20089;-74
2021/11/02 16:43:06;;;;;;;3.70;1.63;;;7.50;99.90;;;;;;5116450;27;20047;-73
2021/11/02 16:45:36;;;;;;;4.35;1.40;;;7.60;99.90;;;;;;5115505;27;20050;-73
2021/11/02 16:48:06;;;;;;;4.13;1.52;;;7.50;99.90;;;;;;5118266;27;20077;-73
2021/11/02 16:50:36;;;;;;;4.18;1.63;;;7.50;99.90;;;;;;5118465;27;20055;-73
2021/11/02 16:53:15;;;;;;;5.50;1.92;;;7.50;99.90;;;;;;5118811;27;20046;-72
2021/11/02 16:55:44;;;;;;;3.25;1.58;;;7.50;99.90;;;;;;5118425;27;20081;-74
2021/11/02 16:58:31;;;;;;;5.43;1.90;;;7.60;99.90;;;;;;5117324;27;20508;-74
2021/11/02 17:01:19;;;;;;;3.35;1.85;;;7.60;99.90;;;;;;5118879;27;20054;-74
2021/11/02 17:03:47;;;;;;;4.15;2.25;;;7.60;99.90;;;;;;5119034;27;20062;-73
2021/11/02 17:06:16;;;;;;;5.63;2.33;;;7.60;99.90;;;;;;5117467;27;20079;-75
2021/11/02 17:08:49;;;;;;;13.40;3.83;;;7.60;99.90;;;;;;5118355;27;20057;-73
2021/11/02 17:11:25;;;;;;;6.30;3.03;;;7.70;99.90;;;;;;5119291;27;20572;-74
2021/11/02 17:13:53;;;;;;;8.48;3.80;;;7.70;99.90;;;;;;5118568;27;20684;-74
2021/11/02 17:16:26;;;;;;;7.20;3.33;;;7.60;99.90;;;;;;5117307;27;20051;-74
2021/11/02 17:19:01;;;;;;;5.15;2.75;;;7.70;99.90;;;;;;5117531;27;20084;-74
2021/11/02 17:21:29;;;;;;;6.32;3.45;;;7.70;99.90;;;;;;5117529;27;20059;-74
2021/11/02 17:23:57;;;;;;;6.35;2.70;;;7.70;99.90;;;;;;5117852;27;20063;-74
2021/11/02 17:26:26;;;;;;;5.38;2.53;;;7.70;99.90;;;;;;5113669;27;21004;-74
2021/11/02 17:28:55;;;;;;;7.97;3.55;;;7.70;99.90;;;;;;5114346;27;20104;-73
2021/11/02 17:31:26;;;;;;;7.82;3.38;;;7.60;99.90;;;;;;5113991;27;20047;-74
2021/11/02 17:33:56;;;;;;;7.63;3.70;;;7.60;99.90;;;;;;5117584;27;20051;-74
2021/11/02 17:36:24;;;;;;;8.73;3.30;;;7.50;99.90;;;;;;5116937;27;20086;-74
2021/11/02 17:38:53;;;;;;;7.22;3.35;;;7.50;99.90;;;;;;5116857;27;20515;-73
2021/11/02 17:41:21;;;;;;;7.25;3.40;;;7.50;99.90;;;;;;5116857;27;20047;-73
2021/11/02 17:43:52;;;;;;;5.93;3.00;;;7.50;99.90;;;;;;5117569;27;21057;-73
2021/11/02 17:46:19;;;;;;;8.10;3.03;;;7.50;99.90;;;;;;5117183;27;20955;-74